EAG21C EGFF-EGAC
Flight info
| Callsign | EAG21C |
|---|---|
| Flight time | 1h 6m |
| Altitude | 20000 |
| Route | BCN P69 DIZIM N864 WAL M146 ERDUV Z198 MASOP M148 MAGEE |
| Aircraft | AT76/M-SDFGIRY/S |
Departure
| Time | 2026-04-30 17:49 |
|---|---|
| Airport | Cardiff International Airport (EGFF) |
Arrival
| Time | 2026-04-30 18:56 |
|---|---|
| Airport | George Best Belfast City Airport (EGAC) |
| Time | Latitude | Longitude | Altitude | Speed | Heading |
|---|---|---|---|---|---|
| 2026-04-30 17:39 | 51.39836 | -3.34074 | 218 ft | 0 kts | 81° |
| 2026-04-30 17:41 | 51.39822 | -3.34216 | 218 ft | 0 kts | 81° |
| 2026-04-30 17:44 | 51.39823 | -3.34214 | 218 ft | 1 kts | 80° |
| 2026-04-30 17:44 | 51.39905 | -3.34519 | 221 ft | 19 kts | 296° |
| 2026-04-30 17:46 | 51.40137 | -3.35447 | 213 ft | 0 kts | 231° |
| 2026-04-30 17:48 | 51.40026 | -3.35485 | 212 ft | 0 kts | 117° |
| 2026-04-30 17:48 | 51.39830 | -3.34866 | 214 ft | 88 kts | 118° |
| 2026-04-30 17:49 | 51.38458 | -3.30113 | 1273 ft | 150 kts | 115° |
| 2026-04-30 17:50 | 51.36767 | -3.23984 | 2785 ft | 151 kts | 115° |
| 2026-04-30 17:51 | 51.35594 | -3.19166 | 3759 ft | 159 kts | 115° |
| 2026-04-30 17:52 | 51.37169 | -3.15084 | 4596 ft | 195 kts | 18° |
| 2026-04-30 17:53 | 51.42691 | -3.18710 | 5961 ft | 205 kts | 332° |
| 2026-04-30 17:54 | 51.48285 | -3.20426 | 7172 ft | 208 kts | 354° |
| 2026-04-30 17:55 | 51.53585 | -3.21678 | 8211 ft | 213 kts | 353° |
| 2026-04-30 17:56 | 51.59522 | -3.23125 | 9330 ft | 218 kts | 353° |
| 2026-04-30 17:57 | 51.64050 | -3.24245 | 10171 ft | 220 kts | 353° |
| 2026-04-30 17:58 | 51.68660 | -3.25382 | 10841 ft | 225 kts | 353° |
| 2026-04-30 17:59 | 51.74900 | -3.25945 | 11658 ft | 227 kts | 14° |
| 2026-04-30 18:00 | 51.81155 | -3.24087 | 12486 ft | 232 kts | 14° |
| 2026-04-30 18:00 | 51.86004 | -3.22992 | 13064 ft | 236 kts | 12° |
| 2026-04-30 18:01 | 51.89264 | -3.22203 | 13494 ft | 237 kts | 13° |
| 2026-04-30 18:02 | 51.94203 | -3.20976 | 14090 ft | 241 kts | 13° |
| 2026-04-30 18:02 | 51.99195 | -3.19737 | 14590 ft | 243 kts | 13° |
| 2026-04-30 18:03 | 52.04241 | -3.18478 | 15019 ft | 246 kts | 13° |
| 2026-04-30 18:04 | 52.09416 | -3.18033 | 15477 ft | 250 kts | 5° |
| 2026-04-30 18:05 | 52.16381 | -3.17597 | 16079 ft | 252 kts | 6° |
| 2026-04-30 18:06 | 52.23416 | -3.17054 | 16602 ft | 255 kts | 7° |
| 2026-04-30 18:07 | 52.30515 | -3.16506 | 17189 ft | 255 kts | 7° |
| 2026-04-30 18:08 | 52.35856 | -3.16089 | 17552 ft | 258 kts | 7° |
| 2026-04-30 18:09 | 52.43056 | -3.15529 | 17960 ft | 260 kts | 7° |
| 2026-04-30 18:10 | 52.50323 | -3.14959 | 18351 ft | 262 kts | 6° |
| 2026-04-30 18:11 | 52.57615 | -3.14395 | 18700 ft | 263 kts | 7° |
| 2026-04-30 18:11 | 52.63118 | -3.13962 | 18937 ft | 264 kts | 7° |
| 2026-04-30 18:12 | 52.68645 | -3.13530 | 19171 ft | 265 kts | 7° |
| 2026-04-30 18:13 | 52.72343 | -3.13275 | 19308 ft | 267 kts | 2° |
| 2026-04-30 18:13 | 52.77262 | -3.14458 | 19464 ft | 269 kts | 352° |
| 2026-04-30 18:14 | 52.81587 | -3.15611 | 19631 ft | 269 kts | 354° |
| 2026-04-30 18:15 | 52.87157 | -3.16920 | 19836 ft | 271 kts | 354° |
| 2026-04-30 18:15 | 52.92726 | -3.17257 | 20067 ft | 265 kts | 10° |
| 2026-04-30 18:16 | 52.96435 | -3.16736 | 20121 ft | 270 kts | 8° |
| 2026-04-30 18:16 | 53.00238 | -3.16420 | 20105 ft | 276 kts | 6° |
| 2026-04-30 18:17 | 53.02158 | -3.16297 | 20106 ft | 276 kts | 6° |
| 2026-04-30 18:17 | 53.04081 | -3.16151 | 20129 ft | 278 kts | 6° |
| 2026-04-30 18:17 | 53.07929 | -3.15876 | 20124 ft | 280 kts | 6° |
| 2026-04-30 18:18 | 53.09879 | -3.15733 | 20127 ft | 281 kts | 6° |
| 2026-04-30 18:18 | 53.11834 | -3.15581 | 20129 ft | 282 kts | 7° |
| 2026-04-30 18:18 | 53.13796 | -3.15417 | 20131 ft | 283 kts | 7° |
| 2026-04-30 18:18 | 53.15769 | -3.15264 | 20128 ft | 284 kts | 6° |
| 2026-04-30 18:19 | 53.17744 | -3.15138 | 20129 ft | 285 kts | 6° |
| 2026-04-30 18:19 | 53.19723 | -3.14996 | 20128 ft | 285 kts | 6° |
| 2026-04-30 18:19 | 53.21705 | -3.14841 | 20128 ft | 285 kts | 6° |
| 2026-04-30 18:19 | 53.23693 | -3.14685 | 20130 ft | 286 kts | 6° |
| 2026-04-30 18:20 | 53.25680 | -3.14532 | 20130 ft | 286 kts | 6° |
| 2026-04-30 18:20 | 53.27670 | -3.14375 | 20131 ft | 286 kts | 6° |
| 2026-04-30 18:20 | 53.29662 | -3.14214 | 20131 ft | 287 kts | 6° |
| 2026-04-30 18:20 | 53.31656 | -3.14057 | 20134 ft | 287 kts | 6° |
| 2026-04-30 18:21 | 53.33652 | -3.13901 | 20154 ft | 287 kts | 6° |
| 2026-04-30 18:21 | 53.35648 | -3.13739 | 20154 ft | 287 kts | 6° |
| 2026-04-30 18:21 | 53.37642 | -3.13780 | 20147 ft | 289 kts | 349° |
| 2026-04-30 18:21 | 53.39497 | -3.15002 | 20151 ft | 287 kts | 331° |
| 2026-04-30 18:22 | 53.41189 | -3.16756 | 20149 ft | 285 kts | 319° |
| 2026-04-30 18:22 | 53.43970 | -3.21403 | 20145 ft | 281 kts | 307° |
| 2026-04-30 18:22 | 53.45280 | -3.23839 | 20146 ft | 282 kts | 307° |
| 2026-04-30 18:23 | 53.46603 | -3.26212 | 20147 ft | 283 kts | 309° |
| 2026-04-30 18:23 | 53.47984 | -3.28574 | 20147 ft | 283 kts | 310° |
| 2026-04-30 18:23 | 53.49370 | -3.30929 | 20137 ft | 284 kts | 310° |
| 2026-04-30 18:23 | 53.50752 | -3.33291 | 20137 ft | 284 kts | 310° |
| 2026-04-30 18:24 | 53.53516 | -3.38038 | 20139 ft | 284 kts | 310° |
| 2026-04-30 18:24 | 53.54899 | -3.40415 | 20137 ft | 284 kts | 310° |
| 2026-04-30 18:24 | 53.56280 | -3.42798 | 20137 ft | 285 kts | 310° |
| 2026-04-30 18:25 | 53.57662 | -3.45189 | 20138 ft | 284 kts | 309° |
| 2026-04-30 18:25 | 53.60052 | -3.50401 | 20140 ft | 280 kts | 298° |
| 2026-04-30 18:25 | 53.61130 | -3.53124 | 20135 ft | 279 kts | 297° |
| 2026-04-30 18:26 | 53.63326 | -3.58532 | 20136 ft | 280 kts | 299° |
| 2026-04-30 18:26 | 53.64448 | -3.61221 | 20134 ft | 280 kts | 299° |
| 2026-04-30 18:26 | 53.65574 | -3.63902 | 20163 ft | 281 kts | 299° |
| 2026-04-30 18:27 | 53.67849 | -3.69233 | 20138 ft | 282 kts | 299° |
| 2026-04-30 18:27 | 53.68991 | -3.71912 | 20134 ft | 282 kts | 299° |
| 2026-04-30 18:28 | 53.71250 | -3.77305 | 20131 ft | 281 kts | 299° |
| 2026-04-30 18:28 | 53.72376 | -3.80012 | 20130 ft | 281 kts | 298° |
| 2026-04-30 18:28 | 53.74627 | -3.85421 | 20130 ft | 281 kts | 298° |
| 2026-04-30 18:29 | 53.75751 | -3.88129 | 20129 ft | 281 kts | 298° |
| 2026-04-30 18:29 | 53.79121 | -3.96252 | 20135 ft | 281 kts | 298° |
| 2026-04-30 18:30 | 53.80975 | -4.00753 | 20126 ft | 281 kts | 298° |
| 2026-04-30 18:30 | 53.83575 | -4.07055 | 20127 ft | 281 kts | 298° |
| 2026-04-30 18:31 | 53.84693 | -4.09772 | 20127 ft | 281 kts | 298° |
| 2026-04-30 18:31 | 53.86929 | -4.15196 | 20126 ft | 280 kts | 301° |
| 2026-04-30 18:32 | 53.90188 | -4.18914 | 20133 ft | 290 kts | 337° |
| 2026-04-30 18:32 | 53.92089 | -4.20084 | 20144 ft | 291 kts | 341° |
| 2026-04-30 18:32 | 53.95928 | -4.22326 | 20122 ft | 292 kts | 338° |
| 2026-04-30 18:33 | 53.97823 | -4.23566 | 20128 ft | 292 kts | 337° |
| 2026-04-30 18:33 | 54.01611 | -4.26106 | 20133 ft | 292 kts | 337° |
| 2026-04-30 18:33 | 54.03505 | -4.27359 | 20130 ft | 292 kts | 337° |
| 2026-04-30 18:34 | 54.05402 | -4.28612 | 20134 ft | 293 kts | 337° |
| 2026-04-30 18:34 | 54.09196 | -4.31133 | 20133 ft | 293 kts | 337° |
| 2026-04-30 18:34 | 54.11099 | -4.32398 | 20121 ft | 293 kts | 337° |
| 2026-04-30 18:35 | 54.12995 | -4.33666 | 20135 ft | 293 kts | 337° |
| 2026-04-30 18:35 | 54.14849 | -4.35065 | 20130 ft | 289 kts | 322° |
| 2026-04-30 18:35 | 54.16325 | -4.37286 | 20121 ft | 281 kts | 307° |
| 2026-04-30 18:36 | 54.18606 | -4.42591 | 20142 ft | 276 kts | 296° |
| 2026-04-30 18:36 | 54.19649 | -4.45348 | 20133 ft | 277 kts | 296° |
| 2026-04-30 18:36 | 54.21815 | -4.50785 | 20132 ft | 279 kts | 298° |
| 2026-04-30 18:37 | 54.22931 | -4.53510 | 20128 ft | 279 kts | 298° |
| 2026-04-30 18:37 | 54.24042 | -4.56238 | 20120 ft | 278 kts | 298° |
| 2026-04-30 18:37 | 54.25159 | -4.58941 | 20127 ft | 278 kts | 299° |
| 2026-04-30 18:37 | 54.26272 | -4.61635 | 20137 ft | 277 kts | 298° |
| 2026-04-30 18:38 | 54.27387 | -4.64327 | 20137 ft | 277 kts | 298° |
| 2026-04-30 18:38 | 54.28498 | -4.67027 | 20138 ft | 278 kts | 298° |
| 2026-04-30 18:38 | 54.29607 | -4.69749 | 20038 ft | 282 kts | 298° |
| 2026-04-30 18:38 | 54.30738 | -4.72555 | 19842 ft | 289 kts | 298° |
| 2026-04-30 18:39 | 54.31897 | -4.75427 | 19653 ft | 295 kts | 298° |
| 2026-04-30 18:39 | 54.33080 | -4.78340 | 19462 ft | 300 kts | 298° |
| 2026-04-30 18:39 | 54.34270 | -4.81270 | 19235 ft | 306 kts | 298° |
| 2026-04-30 18:39 | 54.35510 | -4.84331 | 18791 ft | 318 kts | 298° |
| 2026-04-30 18:40 | 54.36789 | -4.87494 | 18412 ft | 325 kts | 299° |
| 2026-04-30 18:40 | 54.38088 | -4.90712 | 17986 ft | 330 kts | 299° |
| 2026-04-30 18:40 | 54.39401 | -4.93969 | 17556 ft | 334 kts | 299° |
| 2026-04-30 18:40 | 54.40719 | -4.97249 | 17206 ft | 334 kts | 299° |
| 2026-04-30 18:41 | 54.42043 | -5.00536 | 16873 ft | 334 kts | 299° |
| 2026-04-30 18:41 | 54.43363 | -5.03818 | 16540 ft | 334 kts | 299° |
| 2026-04-30 18:41 | 54.44678 | -5.07097 | 16201 ft | 334 kts | 299° |
| 2026-04-30 18:41 | 54.46005 | -5.10377 | 15883 ft | 334 kts | 300° |
| 2026-04-30 18:42 | 54.47332 | -5.13641 | 15592 ft | 333 kts | 300° |
| 2026-04-30 18:42 | 54.49969 | -5.20137 | 15047 ft | 330 kts | 299° |
| 2026-04-30 18:42 | 54.51391 | -5.23218 | 14779 ft | 332 kts | 312° |
| 2026-04-30 18:45 | 54.69694 | -5.38991 | 10629 ft | 282 kts | 17° |
| 2026-04-30 18:45 | 54.71632 | -5.38118 | 10095 ft | 292 kts | 18° |
| 2026-04-30 18:45 | 54.73603 | -5.37156 | 9500 ft | 297 kts | 19° |
| 2026-04-30 18:46 | 54.75577 | -5.36150 | 8902 ft | 293 kts | 19° |
| 2026-04-30 18:46 | 54.77519 | -5.35136 | 8313 ft | 288 kts | 19° |
| 2026-04-30 18:46 | 54.79388 | -5.34771 | 7720 ft | 261 kts | 352° |
| 2026-04-30 18:46 | 54.80966 | -5.35997 | 7150 ft | 243 kts | 317° |
| 2026-04-30 18:47 | 54.81904 | -5.38417 | 6613 ft | 244 kts | 290° |
| 2026-04-30 18:47 | 54.82547 | -5.41182 | 6301 ft | 249 kts | 290° |
| 2026-04-30 18:47 | 54.83237 | -5.43928 | 6119 ft | 247 kts | 291° |
| 2026-04-30 18:47 | 54.83923 | -5.46513 | 5474 ft | 235 kts | 291° |
| 2026-04-30 18:48 | 54.84609 | -5.49033 | 4744 ft | 223 kts | 289° |
| 2026-04-30 18:48 | 54.84773 | -5.51559 | 4006 ft | 208 kts | 250° |
| 2026-04-30 18:48 | 54.84149 | -5.53817 | 3544 ft | 206 kts | 235° |
| 2026-04-30 18:48 | 54.83439 | -5.55971 | 3322 ft | 203 kts | 234° |
| 2026-04-30 18:49 | 54.82752 | -5.58012 | 3227 ft | 183 kts | 233° |
| 2026-04-30 18:49 | 54.82147 | -5.59828 | 3176 ft | 170 kts | 232° |
| 2026-04-30 18:49 | 54.81537 | -5.61607 | 3146 ft | 171 kts | 229° |
| 2026-04-30 18:49 | 54.80757 | -5.63098 | 3144 ft | 166 kts | 217° |
| 2026-04-30 18:50 | 54.79909 | -5.64483 | 3146 ft | 168 kts | 216° |
| 2026-04-30 18:50 | 54.79038 | -5.65844 | 3132 ft | 170 kts | 216° |
| 2026-04-30 18:50 | 54.78159 | -5.67194 | 3126 ft | 172 kts | 215° |
| 2026-04-30 18:50 | 54.77255 | -5.68581 | 3139 ft | 175 kts | 214° |
| 2026-04-30 18:51 | 54.76312 | -5.69942 | 3157 ft | 178 kts | 211° |
| 2026-04-30 18:51 | 54.75294 | -5.71173 | 3035 ft | 174 kts | 208° |
| 2026-04-30 18:51 | 54.74349 | -5.72264 | 2851 ft | 153 kts | 207° |
| 2026-04-30 18:51 | 54.73477 | -5.73246 | 2636 ft | 146 kts | 206° |
| 2026-04-30 18:52 | 54.72687 | -5.74198 | 2462 ft | 130 kts | 206° |
| 2026-04-30 18:52 | 54.71984 | -5.75061 | 2290 ft | 118 kts | 204° |
| 2026-04-30 18:52 | 54.71325 | -5.75841 | 2135 ft | 113 kts | 202° |
| 2026-04-30 18:52 | 54.70664 | -5.76609 | 1987 ft | 117 kts | 203° |
| 2026-04-30 18:53 | 54.69996 | -5.77423 | 1823 ft | 118 kts | 204° |
| 2026-04-30 18:53 | 54.69315 | -5.78249 | 1664 ft | 121 kts | 205° |
| 2026-04-30 18:53 | 54.68647 | -5.79061 | 1501 ft | 116 kts | 205° |
| 2026-04-30 18:53 | 54.67984 | -5.79846 | 1356 ft | 116 kts | 206° |
| 2026-04-30 18:54 | 54.67316 | -5.80638 | 1189 ft | 118 kts | 207° |
| 2026-04-30 18:54 | 54.66631 | -5.81468 | 1020 ft | 121 kts | 208° |
| 2026-04-30 18:54 | 54.65940 | -5.82307 | 853 ft | 121 kts | 210° |
| 2026-04-30 18:54 | 54.65247 | -5.83131 | 698 ft | 120 kts | 212° |
| 2026-04-30 18:55 | 54.64565 | -5.83985 | 550 ft | 123 kts | 208° |
| 2026-04-30 18:55 | 54.63162 | -5.85625 | 229 ft | 120 kts | 211° |
| 2026-04-30 18:55 | 54.62490 | -5.86441 | 58 ft | 118 kts | 209° |
| 2026-04-30 18:56 | 54.61692 | -5.87394 | 15 ft | 22 kts | 215° |
| 2026-04-30 18:56 | 54.61573 | -5.87532 | 11 ft | 17 kts | 214° |
| 2026-04-30 18:56 | 54.61477 | -5.87645 | 9 ft | 17 kts | 214° |
| 2026-04-30 18:57 | 54.61314 | -5.87800 | 11 ft | 9 kts | 149° |
| 2026-04-30 18:57 | 54.61289 | -5.87737 | 12 ft | 5 kts | 123° |
| 2026-04-30 18:57 | 54.61270 | -5.87689 | 12 ft | 5 kts | 126° |
| 2026-04-30 18:58 | 54.61272 | -5.87576 | 15 ft | 9 kts | 33° |
| 2026-04-30 18:58 | 54.61331 | -5.87508 | 16 ft | 8 kts | 35° |
| 2026-04-30 18:58 | 54.61371 | -5.87458 | 18 ft | 7 kts | 39° |
| 2026-04-30 18:59 | 54.61434 | -5.87343 | 18 ft | 7 kts | 32° |
| 2026-04-30 19:00 | 54.61432 | -5.87218 | 21 ft | 0 kts | 124° |